sensor_id;sensor_type;location;lat;lon;timestamp;temperature;humidity
10057;DHT22;5068;51.286;7.518;2022-07-05T00:01:07;12.90;55.00
10057;DHT22;5068;51.286;7.518;2022-07-05T00:02:42;12.90;55.10
10057;DHT22;5068;51.286;7.518;2022-07-05T00:04:15;12.90;55.20
10057;DHT22;5068;51.286;7.518;2022-07-05T00:05:49;12.90;55.20
10057;DHT22;5068;51.286;7.518;2022-07-05T00:07:23;12.90;55.20
10057;DHT22;5068;51.286;7.518;2022-07-05T00:08:56;12.80;55.20
10057;DHT22;5068;51.286;7.518;2022-07-05T00:10:30;12.80;55.20
10057;DHT22;5068;51.286;7.518;2022-07-05T00:12:03;12.80;55.20
10057;DHT22;5068;51.286;7.518;2022-07-05T00:13:37;12.80;55.30
10057;DHT22;5068;51.286;7.518;2022-07-05T00:15:10;12.70;55.30
10057;DHT22;5068;51.286;7.518;2022-07-05T00:16:43;12.70;55.30
10057;DHT22;5068;51.286;7.518;2022-07-05T00:18:17;12.70;55.40
10057;DHT22;5068;51.286;7.518;2022-07-05T00:19:51;12.70;55.50
10057;DHT22;5068;51.286;7.518;2022-07-05T00:21:24;12.70;55.40
10057;DHT22;5068;51.286;7.518;2022-07-05T00:22:58;12.60;55.40
10057;DHT22;5068;51.286;7.518;2022-07-05T00:24:31;12.60;55.40
10057;DHT22;5068;51.286;7.518;2022-07-05T00:26:05;12.60;55.50
10057;DHT22;5068;51.286;7.518;2022-07-05T00:27:38;12.50;55.40
10057;DHT22;5068;51.286;7.518;2022-07-05T00:29:10;12.50;55.60
10057;DHT22;5068;51.286;7.518;2022-07-05T00:30:44;12.50;55.70
10057;DHT22;5068;51.286;7.518;2022-07-05T00:32:17;12.50;56.30
10057;DHT22;5068;51.286;7.518;2022-07-05T00:33:52;12.50;55.70
10057;DHT22;5068;51.286;7.518;2022-07-05T00:35:26;12.40;55.70
10057;DHT22;5068;51.286;7.518;2022-07-05T00:37:00;12.40;55.80
10057;DHT22;5068;51.286;7.518;2022-07-05T00:38:33;12.40;55.80
10057;DHT22;5068;51.286;7.518;2022-07-05T00:40:07;12.40;55.80
10057;DHT22;5068;51.286;7.518;2022-07-05T00:41:41;12.40;55.80
10057;DHT22;5068;51.286;7.518;2022-07-05T00:43:15;12.30;55.80
10057;DHT22;5068;51.286;7.518;2022-07-05T00:44:48;12.30;55.80
10057;DHT22;5068;51.286;7.518;2022-07-05T00:46:22;12.30;55.90
10057;DHT22;5068;51.286;7.518;2022-07-05T00:47:55;12.30;55.90
10057;DHT22;5068;51.286;7.518;2022-07-05T00:49:31;12.20;55.90
10057;DHT22;5068;51.286;7.518;2022-07-05T00:51:05;12.20;56.20
10057;DHT22;5068;51.286;7.518;2022-07-05T00:52:39;12.20;56.20
10057;DHT22;5068;51.286;7.518;2022-07-05T00:54:13;12.20;56.20
10057;DHT22;5068;51.286;7.518;2022-07-05T00:55:47;12.10;56.70
10057;DHT22;5068;51.286;7.518;2022-07-05T00:57:21;12.10;56.10
10057;DHT22;5068;51.286;7.518;2022-07-05T00:58:55;12.10;56.20
10057;DHT22;5068;51.286;7.518;2022-07-05T01:00:31;12.10;56.30
10057;DHT22;5068;51.286;7.518;2022-07-05T01:02:14;12.10;57.00
10057;DHT22;5068;51.286;7.518;2022-07-05T01:03:55;12.00;56.40
10057;DHT22;5068;51.286;7.518;2022-07-05T01:05:32;12.00;56.30
10057;DHT22;5068;51.286;7.518;2022-07-05T01:07:10;12.00;56.40
10057;DHT22;5068;51.286;7.518;2022-07-05T01:08:47;12.00;56.40
10057;DHT22;5068;51.286;7.518;2022-07-05T01:10:22;12.00;56.50
10057;DHT22;5068;51.286;7.518;2022-07-05T01:12:00;12.00;56.40
10057;DHT22;5068;51.286;7.518;2022-07-05T01:13:35;11.90;56.40
10057;DHT22;5068;51.286;7.518;2022-07-05T01:15:10;11.90;56.40
10057;DHT22;5068;51.286;7.518;2022-07-05T01:16:45;11.90;56.40
10057;DHT22;5068;51.286;7.518;2022-07-05T01:18:19;11.80;56.30
10057;DHT22;5068;51.286;7.518;2022-07-05T01:19:56;11.90;56.50
10057;DHT22;5068;51.286;7.518;2022-07-05T01:21:33;11.80;56.40
10057;DHT22;5068;51.286;7.518;2022-07-05T01:23:12;11.80;56.60
10057;DHT22;5068;51.286;7.518;2022-07-05T01:24:46;11.80;56.60
10057;DHT22;5068;51.286;7.518;2022-07-05T01:26:21;11.80;56.60
10057;DHT22;5068;51.286;7.518;2022-07-05T01:27:55;11.70;56.50
10057;DHT22;5068;51.286;7.518;2022-07-05T01:29:30;11.70;56.60
10057;DHT22;5068;51.286;7.518;2022-07-05T01:31:03;11.70;56.50
10057;DHT22;5068;51.286;7.518;2022-07-05T01:32:37;11.70;56.60
10057;DHT22;5068;51.286;7.518;2022-07-05T01:34:11;11.60;56.50
10057;DHT22;5068;51.286;7.518;2022-07-05T01:35:45;11.60;56.60
10057;DHT22;5068;51.286;7.518;2022-07-05T01:37:18;11.60;56.60
10057;DHT22;5068;51.286;7.518;2022-07-05T01:38:53;11.60;56.70
10057;DHT22;5068;51.286;7.518;2022-07-05T01:40:26;11.60;56.80
10057;DHT22;5068;51.286;7.518;2022-07-05T01:42:00;11.60;57.00
10057;DHT22;5068;51.286;7.518;2022-07-05T01:43:33;11.50;56.80
10057;DHT22;5068;51.286;7.518;2022-07-05T01:45:07;11.50;56.80
10057;DHT22;5068;51.286;7.518;2022-07-05T01:46:42;11.50;56.80
10057;DHT22;5068;51.286;7.518;2022-07-05T01:48:18;11.40;57.40
10057;DHT22;5068;51.286;7.518;2022-07-05T01:49:57;11.40;56.80
10057;DHT22;5068;51.286;7.518;2022-07-05T01:51:34;11.40;56.80
10057;DHT22;5068;51.286;7.518;2022-07-05T01:53:17;11.40;56.70
10057;DHT22;5068;51.286;7.518;2022-07-05T01:54:54;11.40;56.80
10057;DHT22;5068;51.286;7.518;2022-07-05T01:56:28;11.40;56.80
10057;DHT22;5068;51.286;7.518;2022-07-05T01:58:02;11.40;56.80
10057;DHT22;5068;51.286;7.518;2022-07-05T01:59:36;11.30;56.70
10057;DHT22;5068;51.286;7.518;2022-07-05T02:01:10;11.30;56.90
10057;DHT22;5068;51.286;7.518;2022-07-05T02:02:46;11.20;56.80
10057;DHT22;5068;51.286;7.518;2022-07-05T02:04:20;11.20;56.90
10057;DHT22;5068;51.286;7.518;2022-07-05T02:05:54;11.20;57.00
10057;DHT22;5068;51.286;7.518;2022-07-05T02:07:27;11.20;57.10
10057;DHT22;5068;51.286;7.518;2022-07-05T02:09:04;11.20;57.20
10057;DHT22;5068;51.286;7.518;2022-07-05T02:10:40;11.20;57.30
10057;DHT22;5068;51.286;7.518;2022-07-05T02:12:14;11.10;57.30
10057;DHT22;5068;51.286;7.518;2022-07-05T02:13:48;11.10;57.30
10057;DHT22;5068;51.286;7.518;2022-07-05T02:15:21;11.10;57.40
10057;DHT22;5068;51.286;7.518;2022-07-05T02:16:55;11.10;57.40
10057;DHT22;5068;51.286;7.518;2022-07-05T02:18:30;11.00;57.50
10057;DHT22;5068;51.286;7.518;2022-07-05T02:20:05;11.00;57.60
10057;DHT22;5068;51.286;7.518;2022-07-05T02:21:40;11.00;57.80
10057;DHT22;5068;51.286;7.518;2022-07-05T02:23:17;11.00;58.00
10057;DHT22;5068;51.286;7.518;2022-07-05T02:24:51;11.00;58.00
10057;DHT22;5068;51.286;7.518;2022-07-05T02:26:29;11.00;58.10
10057;DHT22;5068;51.286;7.518;2022-07-05T02:28:03;11.00;58.10
10057;DHT22;5068;51.286;7.518;2022-07-05T02:29:39;11.00;58.20
10057;DHT22;5068;51.286;7.518;2022-07-05T02:31:14;11.00;58.20
10057;DHT22;5068;51.286;7.518;2022-07-05T02:32:49;11.00;58.20
10057;DHT22;5068;51.286;7.518;2022-07-05T02:34:22;11.00;58.20
10057;DHT22;5068;51.286;7.518;2022-07-05T02:35:56;11.00;58.30
10057;DHT22;5068;51.286;7.518;2022-07-05T02:37:30;11.00;58.40
10057;DHT22;5068;51.286;7.518;2022-07-05T02:39:05;10.90;58.40
10057;DHT22;5068;51.286;7.518;2022-07-05T02:40:39;11.00;58.40
10057;DHT22;5068;51.286;7.518;2022-07-05T02:42:15;10.90;58.40
10057;DHT22;5068;51.286;7.518;2022-07-05T02:43:49;10.90;58.50
10057;DHT22;5068;51.286;7.518;2022-07-05T02:45:29;10.90;58.60
10057;DHT22;5068;51.286;7.518;2022-07-05T02:47:04;10.90;58.60
10057;DHT22;5068;51.286;7.518;2022-07-05T02:48:38;10.90;58.60
10057;DHT22;5068;51.286;7.518;2022-07-05T02:50:13;10.90;58.70
10057;DHT22;5068;51.286;7.518;2022-07-05T02:51:50;10.90;58.70
10057;DHT22;5068;51.286;7.518;2022-07-05T02:53:24;10.90;58.70
10057;DHT22;5068;51.286;7.518;2022-07-05T02:54:57;10.90;58.70
10057;DHT22;5068;51.286;7.518;2022-07-05T02:56:30;10.90;58.70
10057;DHT22;5068;51.286;7.518;2022-07-05T02:58:05;10.90;58.70
10057;DHT22;5068;51.286;7.518;2022-07-05T02:59:58;10.90;58.70
10057;DHT22;5068;51.286;7.518;2022-07-05T03:01:52;10.90;59.00
10057;DHT22;5068;51.286;7.518;2022-07-05T03:03:25;10.90;58.60
10057;DHT22;5068;51.286;7.518;2022-07-05T03:04:59;10.90;58.70
10057;DHT22;5068;51.286;7.518;2022-07-05T03:06:33;10.90;58.70
10057;DHT22;5068;51.286;7.518;2022-07-05T03:08:06;10.90;58.70
10057;DHT22;5068;51.286;7.518;2022-07-05T03:09:42;10.90;58.70
10057;DHT22;5068;51.286;7.518;2022-07-05T03:11:16;10.90;58.80
10057;DHT22;5068;51.286;7.518;2022-07-05T03:12:52;10.80;58.70
10057;DHT22;5068;51.286;7.518;2022-07-05T03:14:27;10.90;58.80
10057;DHT22;5068;51.286;7.518;2022-07-05T03:16:00;10.80;58.80
10057;DHT22;5068;51.286;7.518;2022-07-05T03:17:34;10.80;58.90
10057;DHT22;5068;51.286;7.518;2022-07-05T03:19:08;10.80;58.90
10057;DHT22;5068;51.286;7.518;2022-07-05T03:20:44;10.80;59.00
10057;DHT22;5068;51.286;7.518;2022-07-05T03:22:18;10.80;59.10
10057;DHT22;5068;51.286;7.518;2022-07-05T03:23:52;10.80;59.10
10057;DHT22;5068;51.286;7.518;2022-07-05T03:25:25;10.80;59.20
10057;DHT22;5068;51.286;7.518;2022-07-05T03:26:59;10.80;59.20
10057;DHT22;5068;51.286;7.518;2022-07-05T03:28:33;10.80;59.20
10057;DHT22;5068;51.286;7.518;2022-07-05T03:30:10;10.80;59.80
10057;DHT22;5068;51.286;7.518;2022-07-05T03:31:45;10.80;59.30
10057;DHT22;5068;51.286;7.518;2022-07-05T03:33:18;10.80;59.20
10057;DHT22;5068;51.286;7.518;2022-07-05T03:34:53;10.80;59.20
10057;DHT22;5068;51.286;7.518;2022-07-05T03:36:26;10.80;59.20
10057;DHT22;5068;51.286;7.518;2022-07-05T03:38:01;10.70;59.20
10057;DHT22;5068;51.286;7.518;2022-07-05T03:39:35;10.70;59.20
10057;DHT22;5068;51.286;7.518;2022-07-05T03:41:08;10.70;59.20
10057;DHT22;5068;51.286;7.518;2022-07-05T03:42:42;10.70;59.20
10057;DHT22;5068;51.286;7.518;2022-07-05T03:44:15;10.80;59.40
10057;DHT22;5068;51.286;7.518;2022-07-05T03:45:49;10.70;59.30
10057;DHT22;5068;51.286;7.518;2022-07-05T03:47:23;10.70;59.40
10057;DHT22;5068;51.286;7.518;2022-07-05T03:48:57;10.70;59.50
10057;DHT22;5068;51.286;7.518;2022-07-05T03:50:30;10.70;59.50
10057;DHT22;5068;51.286;7.518;2022-07-05T03:52:04;10.70;59.70
10057;DHT22;5068;51.286;7.518;2022-07-05T03:53:37;10.70;59.60
10057;DHT22;5068;51.286;7.518;2022-07-05T03:55:13;10.70;59.60
10057;DHT22;5068;51.286;7.518;2022-07-05T03:56:47;10.70;59.60
10057;DHT22;5068;51.286;7.518;2022-07-05T03:58:21;10.70;59.60
10057;DHT22;5068;51.286;7.518;2022-07-05T03:59:55;10.70;59.70
10057;DHT22;5068;51.286;7.518;2022-07-05T04:01:30;10.70;59.80
10057;DHT22;5068;51.286;7.518;2022-07-05T04:03:04;10.70;60.70
10057;DHT22;5068;51.286;7.518;2022-07-05T04:04:37;10.70;59.90
10057;DHT22;5068;51.286;7.518;2022-07-05T04:06:12;10.70;59.90
10057;DHT22;5068;51.286;7.518;2022-07-05T04:07:50;10.70;59.90
10057;DHT22;5068;51.286;7.518;2022-07-05T04:09:27;10.60;60.00
10057;DHT22;5068;51.286;7.518;2022-07-05T04:11:01;10.60;59.90
10057;DHT22;5068;51.286;7.518;2022-07-05T04:12:36;10.60;59.90
10057;DHT22;5068;51.286;7.518;2022-07-05T04:14:15;10.70;60.00
10057;DHT22;5068;51.286;7.518;2022-07-05T04:15:49;10.70;60.10
10057;DHT22;5068;51.286;7.518;2022-07-05T04:17:26;10.60;60.90
10057;DHT22;5068;51.286;7.518;2022-07-05T04:19:01;10.70;60.30
10057;DHT22;5068;51.286;7.518;2022-07-05T04:20:38;10.60;60.20
10057;DHT22;5068;51.286;7.518;2022-07-05T04:22:14;10.60;60.20
10057;DHT22;5068;51.286;7.518;2022-07-05T04:23:48;10.60;60.30
10057;DHT22;5068;51.286;7.518;2022-07-05T04:25:24;10.70;60.60
10057;DHT22;5068;51.286;7.518;2022-07-05T04:27:05;10.70;60.60
10057;DHT22;5068;51.286;7.518;2022-07-05T04:28:39;10.70;60.70
10057;DHT22;5068;51.286;7.518;2022-07-05T04:30:16;10.70;60.80
10057;DHT22;5068;51.286;7.518;2022-07-05T04:31:51;10.70;61.00
10057;DHT22;5068;51.286;7.518;2022-07-05T04:33:26;10.70;61.10
10057;DHT22;5068;51.286;7.518;2022-07-05T04:35:02;10.70;61.20
10057;DHT22;5068;51.286;7.518;2022-07-05T04:36:36;10.70;61.20
10057;DHT22;5068;51.286;7.518;2022-07-05T04:38:12;10.70;61.20
10057;DHT22;5068;51.286;7.518;2022-07-05T04:39:48;10.70;62.10
10057;DHT22;5068;51.286;7.518;2022-07-05T04:41:22;10.70;61.50
10057;DHT22;5068;51.286;7.518;2022-07-05T04:42:55;10.80;61.80
10057;DHT22;5068;51.286;7.518;2022-07-05T04:44:29;10.80;62.00
10057;DHT22;5068;51.286;7.518;2022-07-05T04:46:03;10.80;62.20
10057;DHT22;5068;51.286;7.518;2022-07-05T04:47:37;10.80;62.40
10057;DHT22;5068;51.286;7.518;2022-07-05T04:49:13;10.80;62.50
10057;DHT22;5068;51.286;7.518;2022-07-05T04:50:46;10.80;62.70
10057;DHT22;5068;51.286;7.518;2022-07-05T04:52:21;10.90;63.00
10057;DHT22;5068;51.286;7.518;2022-07-05T04:53:55;10.90;63.10
10057;DHT22;5068;51.286;7.518;2022-07-05T04:55:29;10.90;63.30
10057;DHT22;5068;51.286;7.518;2022-07-05T04:57:03;10.90;63.30
10057;DHT22;5068;51.286;7.518;2022-07-05T04:58:37;11.00;63.60
10057;DHT22;5068;51.286;7.518;2022-07-05T05:00:12;11.00;63.70
10057;DHT22;5068;51.286;7.518;2022-07-05T05:01:47;11.00;63.70
10057;DHT22;5068;51.286;7.518;2022-07-05T05:03:21;11.10;63.60
10057;DHT22;5068;51.286;7.518;2022-07-05T05:04:56;11.10;63.40
10057;DHT22;5068;51.286;7.518;2022-07-05T05:06:29;11.10;63.30
10057;DHT22;5068;51.286;7.518;2022-07-05T05:08:02;11.10;63.20
10057;DHT22;5068;51.286;7.518;2022-07-05T05:09:36;11.20;63.30
10057;DHT22;5068;51.286;7.518;2022-07-05T05:11:09;11.20;63.30
10057;DHT22;5068;51.286;7.518;2022-07-05T05:12:43;11.20;63.40
10057;DHT22;5068;51.286;7.518;2022-07-05T05:14:16;11.30;63.50
10057;DHT22;5068;51.286;7.518;2022-07-05T05:15:50;11.30;63.50
10057;DHT22;5068;51.286;7.518;2022-07-05T05:17:23;11.30;63.40
10057;DHT22;5068;51.286;7.518;2022-07-05T05:18:56;11.30;63.30
10057;DHT22;5068;51.286;7.518;2022-07-05T05:20:31;11.40;63.30
10057;DHT22;5068;51.286;7.518;2022-07-05T05:22:11;11.40;63.30
10057;DHT22;5068;51.286;7.518;2022-07-05T05:23:45;11.40;63.00
10057;DHT22;5068;51.286;7.518;2022-07-05T05:25:19;11.40;62.90
10057;DHT22;5068;51.286;7.518;2022-07-05T05:26:52;11.50;63.80
10057;DHT22;5068;51.286;7.518;2022-07-05T05:28:26;11.50;63.00
10057;DHT22;5068;51.286;7.518;2022-07-05T05:29:59;11.50;63.00
10057;DHT22;5068;51.286;7.518;2022-07-05T05:31:33;11.50;63.10
10057;DHT22;5068;51.286;7.518;2022-07-05T05:33:07;11.60;63.20
10057;DHT22;5068;51.286;7.518;2022-07-05T05:34:40;11.60;63.20
10057;DHT22;5068;51.286;7.518;2022-07-05T05:36:15;11.60;63.30
10057;DHT22;5068;51.286;7.518;2022-07-05T05:37:51;11.60;63.40
10057;DHT22;5068;51.286;7.518;2022-07-05T05:39:26;11.70;63.50
10057;DHT22;5068;51.286;7.518;2022-07-05T05:41:00;11.70;63.50
10057;DHT22;5068;51.286;7.518;2022-07-05T05:42:33;11.80;63.60
10057;DHT22;5068;51.286;7.518;2022-07-05T05:44:07;11.80;63.60
10057;DHT22;5068;51.286;7.518;2022-07-05T05:45:41;11.90;63.60
10057;DHT22;5068;51.286;7.518;2022-07-05T05:47:14;11.90;63.50
10057;DHT22;5068;51.286;7.518;2022-07-05T05:48:48;12.00;63.60
10057;DHT22;5068;51.286;7.518;2022-07-05T05:50:24;12.00;63.60
10057;DHT22;5068;51.286;7.518;2022-07-05T05:52:00;12.10;63.70
10057;DHT22;5068;51.286;7.518;2022-07-05T05:53:32;12.10;63.50
10057;DHT22;5068;51.286;7.518;2022-07-05T05:55:06;12.10;63.40
10057;DHT22;5068;51.286;7.518;2022-07-05T05:56:40;12.10;63.50
10057;DHT22;5068;51.286;7.518;2022-07-05T05:58:15;12.20;63.60
10057;DHT22;5068;51.286;7.518;2022-07-05T05:59:49;12.20;63.60
10057;DHT22;5068;51.286;7.518;2022-07-05T06:01:23;12.30;63.60
10057;DHT22;5068;51.286;7.518;2022-07-05T06:02:57;12.40;63.60
10057;DHT22;5068;51.286;7.518;2022-07-05T06:04:30;12.40;63.60
10057;DHT22;5068;51.286;7.518;2022-07-05T06:06:04;12.40;63.50
10057;DHT22;5068;51.286;7.518;2022-07-05T06:07:47;12.50;63.60
10057;DHT22;5068;51.286;7.518;2022-07-05T06:09:21;12.60;63.80
10057;DHT22;5068;51.286;7.518;2022-07-05T06:10:58;12.60;63.60
10057;DHT22;5068;51.286;7.518;2022-07-05T06:12:35;12.70;63.70
10057;DHT22;5068;51.286;7.518;2022-07-05T06:14:09;12.70;63.70
10057;DHT22;5068;51.286;7.518;2022-07-05T06:15:43;12.80;63.60
10057;DHT22;5068;51.286;7.518;2022-07-05T06:17:17;12.90;63.50
10057;DHT22;5068;51.286;7.518;2022-07-05T06:18:51;13.00;64.40
10057;DHT22;5068;51.286;7.518;2022-07-05T06:20:25;13.00;63.40
10057;DHT22;5068;51.286;7.518;2022-07-05T06:22:01;13.10;63.50
10057;DHT22;5068;51.286;7.518;2022-07-05T06:23:36;13.10;63.20
10057;DHT22;5068;51.286;7.518;2022-07-05T06:25:10;13.20;63.20
10057;DHT22;5068;51.286;7.518;2022-07-05T06:26:58;13.30;63.40
10057;DHT22;5068;51.286;7.518;2022-07-05T06:28:32;13.30;63.10
10057;DHT22;5068;51.286;7.518;2022-07-05T06:30:07;13.40;63.20
10057;DHT22;5068;51.286;7.518;2022-07-05T06:31:42;13.50;63.20
10057;DHT22;5068;51.286;7.518;2022-07-05T06:33:16;13.50;63.00
10057;DHT22;5068;51.286;7.518;2022-07-05T06:34:49;13.60;62.90
10057;DHT22;5068;51.286;7.518;2022-07-05T06:36:23;13.70;63.70
10057;DHT22;5068;51.286;7.518;2022-07-05T06:37:58;13.80;62.80
10057;DHT22;5068;51.286;7.518;2022-07-05T06:39:34;13.80;62.60
10057;DHT22;5068;51.286;7.518;2022-07-05T06:41:08;13.90;62.70
10057;DHT22;5068;51.286;7.518;2022-07-05T06:42:42;14.00;62.70
10057;DHT22;5068;51.286;7.518;2022-07-05T06:44:15;14.00;62.50
10057;DHT22;5068;51.286;7.518;2022-07-05T06:46:07;14.10;62.50
10057;DHT22;5068;51.286;7.518;2022-07-05T06:47:40;14.20;62.30
10057;DHT22;5068;51.286;7.518;2022-07-05T06:49:14;14.30;62.10
10057;DHT22;5068;51.286;7.518;2022-07-05T06:50:47;14.30;61.60
10057;DHT22;5068;51.286;7.518;2022-07-05T06:52:21;14.40;61.30
10057;DHT22;5068;51.286;7.518;2022-07-05T06:53:54;14.50;61.90
10057;DHT22;5068;51.286;7.518;2022-07-05T06:55:49;14.60;60.70
10057;DHT22;5068;51.286;7.518;2022-07-05T06:57:27;14.70;60.40
10057;DHT22;5068;51.286;7.518;2022-07-05T06:59:02;14.80;60.40
10057;DHT22;5068;51.286;7.518;2022-07-05T07:00:40;14.80;60.20
10057;DHT22;5068;51.286;7.518;2022-07-05T07:02:34;15.00;60.40
10057;DHT22;5068;51.286;7.518;2022-07-05T07:04:08;15.10;60.00
10057;DHT22;5068;51.286;7.518;2022-07-05T07:05:51;15.20;59.80
10057;DHT22;5068;51.286;7.518;2022-07-05T07:07:34;15.30;59.60
10057;DHT22;5068;51.286;7.518;2022-07-05T07:09:25;15.40;59.30
10057;DHT22;5068;51.286;7.518;2022-07-05T07:10:59;15.40;58.90
10057;DHT22;5068;51.286;7.518;2022-07-05T07:12:33;15.50;58.60
10057;DHT22;5068;51.286;7.518;2022-07-05T07:14:06;15.60;58.40
10057;DHT22;5068;51.286;7.518;2022-07-05T07:15:40;15.70;58.20
10057;DHT22;5068;51.286;7.518;2022-07-05T07:17:17;15.70;58.20
10057;DHT22;5068;51.286;7.518;2022-07-05T07:18:50;15.80;58.10
10057;DHT22;5068;51.286;7.518;2022-07-05T07:20:43;15.90;58.10
10057;DHT22;5068;51.286;7.518;2022-07-05T07:22:17;16.00;57.80
10057;DHT22;5068;51.286;7.518;2022-07-05T07:23:51;16.00;57.70
10057;DHT22;5068;51.286;7.518;2022-07-05T07:25:24;16.10;57.50
10057;DHT22;5068;51.286;7.518;2022-07-05T07:26:59;16.20;57.20
10057;DHT22;5068;51.286;7.518;2022-07-05T07:28:35;16.30;56.60
10057;DHT22;5068;51.286;7.518;2022-07-05T07:30:10;16.40;56.50
10057;DHT22;5068;51.286;7.518;2022-07-05T07:31:46;16.40;56.20
10057;DHT22;5068;51.286;7.518;2022-07-05T07:33:19;16.50;56.00
10057;DHT22;5068;51.286;7.518;2022-07-05T07:35:13;16.60;55.80
10057;DHT22;5068;51.286;7.518;2022-07-05T07:36:47;16.70;55.50
10057;DHT22;5068;51.286;7.518;2022-07-05T07:38:21;16.80;55.40
10057;DHT22;5068;51.286;7.518;2022-07-05T07:39:54;16.90;55.20
10057;DHT22;5068;51.286;7.518;2022-07-05T07:41:28;17.00;55.00
10057;DHT22;5068;51.286;7.518;2022-07-05T07:43:03;17.10;54.60
10057;DHT22;5068;51.286;7.518;2022-07-05T07:44:41;17.20;53.90
10057;DHT22;5068;51.286;7.518;2022-07-05T07:46:15;17.30;54.30
10057;DHT22;5068;51.286;7.518;2022-07-05T07:47:48;17.40;53.30
10057;DHT22;5068;51.286;7.518;2022-07-05T07:49:22;17.40;53.70
10057;DHT22;5068;51.286;7.518;2022-07-05T07:50:56;17.60;52.60
10057;DHT22;5068;51.286;7.518;2022-07-05T07:52:29;17.70;51.90
10057;DHT22;5068;51.286;7.518;2022-07-05T07:54:05;17.70;51.40
10057;DHT22;5068;51.286;7.518;2022-07-05T07:55:45;17.80;51.30
10057;DHT22;5068;51.286;7.518;2022-07-05T07:57:21;17.90;51.40
10057;DHT22;5068;51.286;7.518;2022-07-05T07:58:56;18.00;51.10
10057;DHT22;5068;51.286;7.518;2022-07-05T08:00:30;18.10;50.60
10057;DHT22;5068;51.286;7.518;2022-07-05T08:02:05;18.10;50.50
10057;DHT22;5068;51.286;7.518;2022-07-05T08:03:40;18.30;50.40
10057;DHT22;5068;51.286;7.518;2022-07-05T08:05:14;18.30;50.40
10057;DHT22;5068;51.286;7.518;2022-07-05T08:06:47;18.50;50.60
10057;DHT22;5068;51.286;7.518;2022-07-05T08:08:21;18.60;50.10
10057;DHT22;5068;51.286;7.518;2022-07-05T08:09:55;18.70;49.70
10057;DHT22;5068;51.286;7.518;2022-07-05T08:11:28;18.70;49.20
10057;DHT22;5068;51.286;7.518;2022-07-05T08:13:01;18.80;48.40
10057;DHT22;5068;51.286;7.518;2022-07-05T08:14:36;18.90;48.20
10057;DHT22;5068;51.286;7.518;2022-07-05T08:16:10;19.00;47.90
10057;DHT22;5068;51.286;7.518;2022-07-05T08:17:44;19.00;47.90
10057;DHT22;5068;51.286;7.518;2022-07-05T08:19:32;19.10;47.50
10057;DHT22;5068;51.286;7.518;2022-07-05T08:21:22;19.10;47.90
10057;DHT22;5068;51.286;7.518;2022-07-05T08:23:09;19.20;47.80
10057;DHT22;5068;51.286;7.518;2022-07-05T08:24:42;19.20;47.40
10057;DHT22;5068;51.286;7.518;2022-07-05T08:26:17;19.20;46.90
10057;DHT22;5068;51.286;7.518;2022-07-05T08:27:50;19.20;46.70
10057;DHT22;5068;51.286;7.518;2022-07-05T08:29:24;19.30;46.60
10057;DHT22;5068;51.286;7.518;2022-07-05T08:31:00;19.30;45.60
10057;DHT22;5068;51.286;7.518;2022-07-05T08:32:34;19.30;45.00
10057;DHT22;5068;51.286;7.518;2022-07-05T08:34:09;19.30;45.60
10057;DHT22;5068;51.286;7.518;2022-07-05T08:35:43;19.40;45.20
10057;DHT22;5068;51.286;7.518;2022-07-05T08:37:17;19.40;44.70
10057;DHT22;5068;51.286;7.518;2022-07-05T08:38:51;19.50;44.20
10057;DHT22;5068;51.286;7.518;2022-07-05T08:40:26;19.60;44.30
10057;DHT22;5068;51.286;7.518;2022-07-05T08:42:08;19.60;43.80
10057;DHT22;5068;51.286;7.518;2022-07-05T08:43:45;19.70;43.50
10057;DHT22;5068;51.286;7.518;2022-07-05T08:45:20;19.80;42.60
10057;DHT22;5068;51.286;7.518;2022-07-05T08:46:56;19.80;42.90
10057;DHT22;5068;51.286;7.518;2022-07-05T08:48:31;19.90;42.70
10057;DHT22;5068;51.286;7.518;2022-07-05T08:50:06;19.90;42.90
10057;DHT22;5068;51.286;7.518;2022-07-05T08:51:42;20.00;42.70
10057;DHT22;5068;51.286;7.518;2022-07-05T08:53:18;20.10;42.30
10057;DHT22;5068;51.286;7.518;2022-07-05T08:54:52;20.10;42.60
10057;DHT22;5068;51.286;7.518;2022-07-05T08:56:26;20.30;43.20
10057;DHT22;5068;51.286;7.518;2022-07-05T08:58:20;20.30;42.00
10057;DHT22;5068;51.286;7.518;2022-07-05T08:59:53;20.40;41.80
10057;DHT22;5068;51.286;7.518;2022-07-05T09:01:27;20.40;41.60
10057;DHT22;5068;51.286;7.518;2022-07-05T09:03:05;20.50;42.00
10057;DHT22;5068;51.286;7.518;2022-07-05T09:04:43;20.50;41.40
10057;DHT22;5068;51.286;7.518;2022-07-05T09:06:22;20.60;40.80
10057;DHT22;5068;51.286;7.518;2022-07-05T09:07:59;20.60;41.20
10057;DHT22;5068;51.286;7.518;2022-07-05T09:09:33;20.70;40.40
10057;DHT22;5068;51.286;7.518;2022-07-05T09:11:12;20.70;40.40
10057;DHT22;5068;51.286;7.518;2022-07-05T09:12:46;20.70;39.90
10057;DHT22;5068;51.286;7.518;2022-07-05T09:14:23;20.80;40.10
10057;DHT22;5068;51.286;7.518;2022-07-05T09:16:01;20.80;39.90
10057;DHT22;5068;51.286;7.518;2022-07-05T09:17:42;20.80;40.10
10057;DHT22;5068;51.286;7.518;2022-07-05T09:19:18;20.80;39.60
10057;DHT22;5068;51.286;7.518;2022-07-05T09:21:12;20.80;40.00
10057;DHT22;5068;51.286;7.518;2022-07-05T09:22:50;20.80;39.60
10057;DHT22;5068;51.286;7.518;2022-07-05T09:24:26;20.80;40.00
10057;DHT22;5068;51.286;7.518;2022-07-05T09:26:02;20.90;40.10
10057;DHT22;5068;51.286;7.518;2022-07-05T09:27:47;20.90;39.90
10057;DHT22;5068;51.286;7.518;2022-07-05T09:29:24;20.90;39.80
10057;DHT22;5068;51.286;7.518;2022-07-05T09:31:25;20.90;40.10
10057;DHT22;5068;51.286;7.518;2022-07-05T09:33:05;20.90;40.10
10057;DHT22;5068;51.286;7.518;2022-07-05T09:34:41;20.90;40.60
10057;DHT22;5068;51.286;7.518;2022-07-05T09:36:15;20.90;40.30
10057;DHT22;5068;51.286;7.518;2022-07-05T09:37:49;20.90;40.40
10057;DHT22;5068;51.286;7.518;2022-07-05T09:39:36;20.90;40.60
10057;DHT22;5068;51.286;7.518;2022-07-05T09:41:13;21.00;40.30
10057;DHT22;5068;51.286;7.518;2022-07-05T09:42:49;21.00;41.10
10057;DHT22;5068;51.286;7.518;2022-07-05T09:44:26;21.10;41.10
10057;DHT22;5068;51.286;7.518;2022-07-05T09:46:03;21.10;41.00
10057;DHT22;5068;51.286;7.518;2022-07-05T09:47:37;21.10;40.40
10057;DHT22;5068;51.286;7.518;2022-07-05T09:49:12;21.20;40.40
10057;DHT22;5068;51.286;7.518;2022-07-05T09:50:48;21.20;40.00
10057;DHT22;5068;51.286;7.518;2022-07-05T09:52:35;21.30;39.60
10057;DHT22;5068;51.286;7.518;2022-07-05T09:54:09;21.30;39.60
10057;DHT22;5068;51.286;7.518;2022-07-05T09:55:59;21.40;39.30
10057;DHT22;5068;51.286;7.518;2022-07-05T09:57:35;21.40;38.70
10057;DHT22;5068;51.286;7.518;2022-07-05T09:59:17;21.40;40.00
10057;DHT22;5068;51.286;7.518;2022-07-05T10:00:54;21.50;39.40
10057;DHT22;5068;51.286;7.518;2022-07-05T10:02:35;21.50;39.70
10057;DHT22;5068;51.286;7.518;2022-07-05T10:04:12;21.40;39.70
10057;DHT22;5068;51.286;7.518;2022-07-05T10:05:48;21.50;39.70
10057;DHT22;5068;51.286;7.518;2022-07-05T10:07:30;21.50;39.70
10057;DHT22;5068;51.286;7.518;2022-07-05T10:09:04;21.50;39.90
10057;DHT22;5068;51.286;7.518;2022-07-05T10:10:38;21.40;40.50
10057;DHT22;5068;51.286;7.518;2022-07-05T10:12:14;21.50;39.90
10057;DHT22;5068;51.286;7.518;2022-07-05T10:13:49;21.40;39.80